Flying Dolphin Xxix — SW9853 — position and weather

sailwx.info

Track history (hours):
 
Tides and Currents Weather Stations Pressure Air Temp Water Temp Dewpoint Dewpoint Depression Visibility Wind Speed Wind Dir Waves Ship Positions

Flying Dolphin Xxix

Last reported at 2018-Jan-18 05:30 UTC. Time now 2018-Jan-18 17:42 UTC.
Position N 37°57' E 023°38'.

Length 34 m.

Type: High speed craft. MMSI: 237024500.

Date/timePositionNaut miles runAvg speedWind from/ knotsBaromVisibWave heightAir tempDewpointWater temp
2018-Jan-18 05:30N 37°57' E 023°38'0 0.0
2018-Jan-18 05:00N 37°57' E 023°38'  
2018-Jan-12 10:52N 37°57' E 023°39'0 0.0
2018-Jan-12 09:34N 37°57' E 023°39'0 0.1
2018-Jan-12 09:30N 37°57' E 023°39'0 0.0
2018-Jan-12 09:01N 37°57' E 023°39'0 0.0
2018-Jan-12 08:31N 37°57' E 023°39'0 0.0
2018-Jan-12 07:23N 37°57' E 023°39'0 0.0
2018-Jan-12 07:00N 37°57' E 023°39'816.3
2018-Jan-12 06:30N 37°49' E 023°35'1631.1
2018-Jan-12 06:00N 37°35' E 023°27'917.7
2018-Jan-12 05:30N 37°27' E 023°32'10 0.8
2018-Jan-11 17:11N 37°23' E 023°21'1018.2
2018-Jan-11 16:38N 37°25' E 023°33'623.5
2018-Jan-11 16:24N 37°30' E 023°28'512.3
2018-Jan-11 16:00N 37°34' E 023°28'1631.8
2018-Jan-11 15:30N 37°49' E 023°35'816.2
2018-Jan-11 15:01N 37°57' E 023°39'714.6
2018-Jan-11 14:30N 37°51' E 023°32'814.7
2018-Jan-11 13:56N 37°45' E 023°26'1228.4
2018-Jan-11 13:31N 37°54' E 023°35'3 6.8
2018-Jan-11 13:00N 37°57' E 023°38'1428.1
2018-Jan-11 12:31N 37°47' E 023°26'510.8
2018-Jan-11 12:00N 37°43' E 023°21'510.3
2018-Jan-11 11:31N 37°46' E 023°26'1428.5
2018-Jan-11 11:00N 37°57' E 023°38'510.5
2018-Jan-11 10:31N 37°53' E 023°34'1019.8
2018-Jan-11 09:59N 37°45' E 023°26'1429.0
2018-Jan-11 09:31N 37°56' E 023°36'2 4.5
2018-Jan-11 09:01N 37°54' E 023°35'1223.2
2018-Jan-11 08:30N 37°45' E 023°26'2 3.4
2018-Jan-11 08:01N 37°44' E 023°24'1019.3
2018-Jan-11 07:30N 37°51' E 023°32'815.0
2018-Jan-11 07:00N 37°57' E 023°39'1121.4
2018-Jan-11 06:31N 37°49' E 023°29'1427.3
2018-Jan-11 06:01N 37°35' E 023°27'917.1
2018-Jan-11 05:28N 37°27' E 023°32'25 1.8
2018-Jan-10 15:18N 37°52' E 023°36'518.5
2018-Jan-10 15:00N 37°57' E 023°39'0 0.0
2018-Jan-10 14:30N 37°57' E 023°39'0 0.0
2018-Jan-10 07:34N 37°57' E 023°39'0 0.0
2018-Jan-10 07:31N 37°57' E 023°39'0 0.0
2018-Jan-10 07:01N 37°57' E 023°39'815.5
2018-Jan-10 06:31N 37°49' E 023°35'1631.4
2018-Jan-10 06:01N 37°35' E 023°26'917.4
2018-Jan-10 05:30N 37°28' E 023°31'10 0.8
2018-Jan-09 17:03N 37°23' E 023°21'132.2
2018-Jan-09 17:01N 37°22' E 023°22'916.7
2018-Jan-09 16:29N 37°26' E 023°33'817.9
2018-Jan-09 16:01N 37°32' E 023°25'1632.4
2018-Jan-09 15:31N 37°46' E 023°35'1122.5
2018-Jan-09 15:00N 37°57' E 023°39'0 0.0
2018-Jan-09 14:30N 37°57' E 023°39'0 0.0
2018-Jan-09 14:00N 37°57' E 023°39'0 0.0
2018-Jan-09 13:30N 37°57' E 023°39'4 7.7
2018-Jan-09 13:01N 37°58' E 023°34'0 0.0
2018-Jan-09 12:31N 37°58' E 023°34'0 0.1
2018-Jan-09 12:00N 37°58' E 023°34'0 0.0
2018-Jan-09 11:30N 37°58' E 023°34'0 0.0
2018-Jan-09 11:00N 37°58' E 023°34'0 0.0
2018-Jan-09 10:30N 37°58' E 023°34'0 0.0
2018-Jan-09 10:00N 37°58' E 023°34'0 0.0
2018-Jan-09 09:30N 37°58' E 023°34'0 0.0
2018-Jan-09 09:00N 37°58' E 023°34'0 0.0
2018-Jan-09 08:30N 37°58' E 023°34'0 0.0
2018-Jan-09 07:40N 37°58' E 023°34'213.9
2018-Jan-09 07:31N 37°57' E 023°36'1 1.6
2018-Jan-09 06:36N 37°57' E 023°38'331.1
2018-Jan-09 06:31N 37°55' E 023°36'1315.4
2018-Jan-09 05:40N 37°45' E 023°25'427.3
2018-Jan-09 05:31N 37°48' E 023°28'12 0.8
2018-Jan-08 14:44N 37°57' E 023°39'313.5
2018-Jan-08 14:31N 37°55' E 023°36'1324.9
2018-Jan-08 13:59N 37°45' E 023°26'510.1
2018-Jan-08 13:30N 37°49' E 023°29'1121.8
2018-Jan-08 13:00N 37°57' E 023°39'1020.1
2018-Jan-08 12:31N 37°49' E 023°30'917.4
2018-Jan-08 12:00N 37°43' E 023°22'3 6.6
2018-Jan-08 11:30N 37°45' E 023°26'1428.2
2018-Jan-08 11:01N 37°56' E 023°36'1 2.1
2018-Jan-08 10:31N 37°55' E 023°36'1322.3
2018-Jan-08 09:56N 37°45' E 023°26'1220.1
2018-Jan-08 09:19N 37°55' E 023°35'311.1
2018-Jan-08 09:00N 37°57' E 023°39'1625.7
2018-Jan-08 08:23N 37°45' E 023°25'4 9.8
2018-Jan-08 08:00N 37°43' E 023°21'612.0
2018-Jan-08 07:31N 37°47' E 023°26'1427.0
2018-Jan-08 07:01N 37°57' E 023°38'4 8.3
2018-Jan-08 06:31N 37°54' E 023°35'1113.9
2018-Jan-08 05:42N 37°45' E 023°26'419.4
2018-Jan-08 05:31N 37°48' E 023°28'  
Track history (hours):
 
Tides and Currents Weather Stations Pressure Air Temp Water Temp Dewpoint Dewpoint Depression Visibility Wind Speed Wind Dir Waves Ship Positions

Flying Dolphin Xxix

Last reported at 2018-Jan-18 05:30 UTC. Time now 2018-Jan-18 17:42 UTC.
Position N 37°57' E 023°38'.

Length 34 m.

Type: High speed craft. MMSI: 237024500.

Date/timePositionNaut miles runAvg speedWind from/ knotsBaromVisibWave heightAir tempDewpointWater temp
2018-Jan-18 05:30N 37°57' E 023°38'0 0.0
2018-Jan-18 05:00N 37°57' E 023°38'  
2018-Jan-12 10:52N 37°57' E 023°39'0 0.0
2018-Jan-12 09:34N 37°57' E 023°39'0 0.1
2018-Jan-12 09:30N 37°57' E 023°39'0 0.0
2018-Jan-12 09:01N 37°57' E 023°39'0 0.0
2018-Jan-12 08:31N 37°57' E 023°39'0 0.0
2018-Jan-12 07:23N 37°57' E 023°39'0 0.0
2018-Jan-12 07:00N 37°57' E 023°39'816.3
2018-Jan-12 06:30N 37°49' E 023°35'1631.1
2018-Jan-12 06:00N 37°35' E 023°27'917.7
2018-Jan-12 05:30N 37°27' E 023°32'10 0.8
2018-Jan-11 17:11N 37°23' E 023°21'1018.2
2018-Jan-11 16:38N 37°25' E 023°33'623.5
2018-Jan-11 16:24N 37°30' E 023°28'512.3
2018-Jan-11 16:00N 37°34' E 023°28'1631.8
2018-Jan-11 15:30N 37°49' E 023°35'816.2
2018-Jan-11 15:01N 37°57' E 023°39'714.6
2018-Jan-11 14:30N 37°51' E 023°32'814.7
2018-Jan-11 13:56N 37°45' E 023°26'1228.4
2018-Jan-11 13:31N 37°54' E 023°35'3 6.8
2018-Jan-11 13:00N 37°57' E 023°38'1428.1
2018-Jan-11 12:31N 37°47' E 023°26'510.8
2018-Jan-11 12:00N 37°43' E 023°21'510.3
2018-Jan-11 11:31N 37°46' E 023°26'1428.5
2018-Jan-11 11:00N 37°57' E 023°38'510.5
2018-Jan-11 10:31N 37°53' E 023°34'1019.8
2018-Jan-11 09:59N 37°45' E 023°26'1429.0
2018-Jan-11 09:31N 37°56' E 023°36'2 4.5
2018-Jan-11 09:01N 37°54' E 023°35'1223.2
2018-Jan-11 08:30N 37°45' E 023°26'2 3.4
2018-Jan-11 08:01N 37°44' E 023°24'1019.3
2018-Jan-11 07:30N 37°51' E 023°32'815.0
2018-Jan-11 07:00N 37°57' E 023°39'1121.4
2018-Jan-11 06:31N 37°49' E 023°29'1427.3
2018-Jan-11 06:01N 37°35' E 023°27'917.1
2018-Jan-11 05:28N 37°27' E 023°32'25 1.8
2018-Jan-10 15:18N 37°52' E 023°36'518.5
2018-Jan-10 15:00N 37°57' E 023°39'0 0.0
2018-Jan-10 14:30N 37°57' E 023°39'0 0.0
2018-Jan-10 07:34N 37°57' E 023°39'0 0.0
2018-Jan-10 07:31N 37°57' E 023°39'0 0.0
2018-Jan-10 07:01N 37°57' E 023°39'815.5
2018-Jan-10 06:31N 37°49' E 023°35'1631.4
2018-Jan-10 06:01N 37°35' E 023°26'917.4
2018-Jan-10 05:30N 37°28' E 023°31'10 0.8
2018-Jan-09 17:03N 37°23' E 023°21'132.2
2018-Jan-09 17:01N 37°22' E 023°22'916.7
2018-Jan-09 16:29N 37°26' E 023°33'817.9
2018-Jan-09 16:01N 37°32' E 023°25'1632.4
2018-Jan-09 15:31N 37°46' E 023°35'1122.5
2018-Jan-09 15:00N 37°57' E 023°39'0 0.0
2018-Jan-09 14:30N 37°57' E 023°39'0 0.0
2018-Jan-09 14:00N 37°57' E 023°39'0 0.0
2018-Jan-09 13:30N 37°57' E 023°39'4 7.7
2018-Jan-09 13:01N 37°58' E 023°34'0 0.0
2018-Jan-09 12:31N 37°58' E 023°34'0 0.1
2018-Jan-09 12:00N 37°58' E 023°34'0 0.0
2018-Jan-09 11:30N 37°58' E 023°34'0 0.0
2018-Jan-09 11:00N 37°58' E 023°34'0 0.0
2018-Jan-09 10:30N 37°58' E 023°34'0 0.0
2018-Jan-09 10:00N 37°58' E 023°34'0 0.0
2018-Jan-09 09:30N 37°58' E 023°34'0 0.0
2018-Jan-09 09:00N 37°58' E 023°34'0 0.0
2018-Jan-09 08:30N 37°58' E 023°34'0 0.0
2018-Jan-09 07:40N 37°58' E 023°34'213.9
2018-Jan-09 07:31N 37°57' E 023°36'1 1.6
2018-Jan-09 06:36N 37°57' E 023°38'331.1
2018-Jan-09 06:31N 37°55' E 023°36'1315.4
2018-Jan-09 05:40N 37°45' E 023°25'427.3
2018-Jan-09 05:31N 37°48' E 023°28'12 0.8
2018-Jan-08 14:44N 37°57' E 023°39'313.5
2018-Jan-08 14:31N 37°55' E 023°36'1324.9
2018-Jan-08 13:59N 37°45' E 023°26'510.1
2018-Jan-08 13:30N 37°49' E 023°29'1121.8
2018-Jan-08 13:00N 37°57' E 023°39'1020.1
2018-Jan-08 12:31N 37°49' E 023°30'917.4
2018-Jan-08 12:00N 37°43' E 023°22'3 6.6
2018-Jan-08 11:30N 37°45' E 023°26'1428.2
2018-Jan-08 11:01N 37°56' E 023°36'1 2.1
2018-Jan-08 10:31N 37°55' E 023°36'1322.3
2018-Jan-08 09:56N 37°45' E 023°26'1220.1
2018-Jan-08 09:19N 37°55' E 023°35'311.1
2018-Jan-08 09:00N 37°57' E 023°39'1625.7
2018-Jan-08 08:23N 37°45' E 023°25'4 9.8
2018-Jan-08 08:00N 37°43' E 023°21'612.0
2018-Jan-08 07:31N 37°47' E 023°26'1427.0
2018-Jan-08 07:01N 37°57' E 023°38'4 8.3
2018-Jan-08 06:31N 37°54' E 023°35'1113.9
2018-Jan-08 05:42N 37°45' E 023°26'419.4
2018-Jan-08 05:31N 37°48' E 023°28'  

Dump ship's entire track history